sensor_id;sensor_type;location;lat;lon;timestamp;P1;durP1;ratioP1;P2;durP2;ratioP2
51252;SDS011;38936;47.808;19.936;2022-09-27T09:49:54;27.48;;;19.88;;
51252;SDS011;38936;47.808;19.936;2022-09-27T09:52:24;30.75;;;20.25;;
51252;SDS011;38936;47.808;19.936;2022-09-27T09:54:57;27.75;;;22.45;;
51252;SDS011;38936;47.808;19.936;2022-09-27T10:00:42;29.25;;;22.60;;
51252;SDS011;38936;47.808;19.936;2022-09-27T10:03:09;29.17;;;23.25;;
51252;SDS011;38936;47.808;19.936;2022-09-27T10:05:35;27.92;;;22.95;;
51252;SDS011;38936;47.808;19.936;2022-09-27T10:08:01;20.05;;;17.25;;
51252;SDS011;38936;47.808;19.936;2022-09-27T10:10:29;25.38;;;18.67;;
51252;SDS011;38936;47.808;19.936;2022-09-27T10:12:55;25.65;;;21.80;;
51252;SDS011;38936;47.808;19.936;2022-09-27T10:15:22;28.60;;;20.60;;
51252;SDS011;38936;47.808;19.936;2022-09-27T10:17:51;28.02;;;21.42;;
51252;SDS011;38936;47.808;19.936;2022-09-27T10:20:42;27.65;;;21.40;;
51252;SDS011;38936;47.808;19.936;2022-09-27T10:23:15;25.35;;;19.73;;
51252;SDS011;38936;47.808;19.936;2022-09-27T10:25:46;18.88;;;16.63;;
51252;SDS011;38936;47.808;19.936;2022-09-27T10:31:10;19.60;;;16.17;;
51252;SDS011;38936;47.808;19.936;2022-09-27T10:33:53;21.67;;;15.93;;
51252;SDS011;38936;47.808;19.936;2022-09-27T10:36:25;19.08;;;15.88;;
51252;SDS011;38936;47.808;19.936;2022-09-27T10:39:04;22.77;;;17.33;;
51252;SDS011;38936;47.808;19.936;2022-09-27T10:41:35;24.33;;;17.92;;
51252;SDS011;38936;47.808;19.936;2022-09-27T10:44:17;19.77;;;17.50;;
51252;SDS011;38936;47.808;19.936;2022-09-27T10:46:43;22.33;;;15.68;;
51252;SDS011;38936;47.808;19.936;2022-09-27T10:49:22;24.95;;;17.50;;
51252;SDS011;38936;47.808;19.936;2022-09-27T10:52:09;22.63;;;19.25;;
51252;SDS011;38936;47.808;19.936;2022-09-27T10:54:40;25.02;;;18.90;;
51252;SDS011;38936;47.808;19.936;2022-09-27T10:59:39;21.27;;;16.23;;
51252;SDS011;38936;47.808;19.936;2022-09-27T11:02:20;25.40;;;17.60;;
51252;SDS011;38936;47.808;19.936;2022-09-27T11:05:40;21.88;;;17.00;;
51252;SDS011;38936;47.808;19.936;2022-09-27T11:07:54;19.73;;;15.10;;
51252;SDS011;38936;47.808;19.936;2022-09-27T11:10:28;17.38;;;13.82;;
51252;SDS011;38936;47.808;19.936;2022-09-27T11:18:39;27.20;;;20.67;;
51252;SDS011;38936;47.808;19.936;2022-09-27T11:21:58;30.90;;;21.75;;
51252;SDS011;38936;47.808;19.936;2022-09-27T11:45:39;27.27;;;21.73;;
51252;SDS011;38936;47.808;19.936;2022-09-27T12:07:47;16.15;;;12.02;;
51252;SDS011;38936;47.808;19.936;2022-09-27T12:10:16;20.63;;;11.98;;
51252;SDS011;38936;47.808;19.936;2022-09-27T12:12:47;17.45;;;12.18;;
51252;SDS011;38936;47.808;19.936;2022-09-27T12:15:27;13.30;;;11.60;;
51252;SDS011;38936;47.808;19.936;2022-09-27T12:18:15;15.80;;;10.32;;
51252;SDS011;38936;47.808;19.936;2022-09-27T12:20:45;11.93;;;8.70;;
51252;SDS011;38936;47.808;19.936;2022-09-27T12:25:40;13.93;;;9.73;;
51252;SDS011;38936;47.808;19.936;2022-09-27T12:36:46;11.10;;;9.43;;
51252;SDS011;38936;47.808;19.936;2022-09-27T12:39:57;24.50;;;17.05;;
51252;SDS011;38936;47.808;19.936;2022-09-27T12:42:31;14.65;;;10.77;;
51252;SDS011;38936;47.808;19.936;2022-09-27T12:45:03;14.38;;;9.82;;
51252;SDS011;38936;47.808;19.936;2022-09-27T12:52:44;10.77;;;8.32;;
51252;SDS011;38936;47.808;19.936;2022-09-27T12:57:50;10.45;;;9.30;;
51252;SDS011;38936;47.808;19.936;2022-09-27T13:00:33;14.18;;;8.70;;
51252;SDS011;38936;47.808;19.936;2022-09-27T13:03:18;10.57;;;8.98;;
51252;SDS011;38936;47.808;19.936;2022-09-27T13:05:58;14.80;;;9.90;;
51252;SDS011;38936;47.808;19.936;2022-09-27T13:11:40;11.25;;;9.18;;
51252;SDS011;38936;47.808;19.936;2022-09-27T13:14:10;12.23;;;9.05;;
51252;SDS011;38936;47.808;19.936;2022-09-27T13:16:43;10.85;;;8.50;;
51252;SDS011;38936;47.808;19.936;2022-09-27T13:21:58;10.10;;;8.05;;
51252;SDS011;38936;47.808;19.936;2022-09-27T13:35:33;7.13;;;5.90;;
51252;SDS011;38936;47.808;19.936;2022-09-27T13:37:59;11.60;;;8.82;;
51252;SDS011;38936;47.808;19.936;2022-09-27T13:40:40;15.07;;;9.85;;
51252;SDS011;38936;47.808;19.936;2022-09-27T13:48:29;11.75;;;8.40;;
51252;SDS011;38936;47.808;19.936;2022-09-27T13:51:15;9.20;;;6.88;;
51252;SDS011;38936;47.808;19.936;2022-09-27T13:53:50;10.77;;;6.97;;
51252;SDS011;38936;47.808;19.936;2022-09-27T13:59:03;14.27;;;8.65;;
51252;SDS011;38936;47.808;19.936;2022-09-27T14:01:40;13.38;;;8.77;;
51252;SDS011;38936;47.808;19.936;2022-09-27T14:04:18;13.55;;;9.32;;
51252;SDS011;38936;47.808;19.936;2022-09-27T14:06:56;9.25;;;8.10;;
51252;SDS011;38936;47.808;19.936;2022-09-27T14:09:31;10.07;;;7.15;;
51252;SDS011;38936;47.808;19.936;2022-09-27T14:12:16;8.68;;;7.57;;
51252;SDS011;38936;47.808;19.936;2022-09-27T14:14:51;9.88;;;6.75;;
51252;SDS011;38936;47.808;19.936;2022-09-27T14:17:19;8.95;;;7.60;;
51252;SDS011;38936;47.808;19.936;2022-09-27T14:19:46;10.10;;;7.32;;
51252;SDS011;38936;47.808;19.936;2022-09-27T14:22:14;9.38;;;7.57;;
51252;SDS011;38936;47.808;19.936;2022-09-27T14:32:15;13.43;;;7.60;;
51252;SDS011;38936;47.808;19.936;2022-09-27T14:34:46;12.27;;;8.88;;
51252;SDS011;38936;47.808;19.936;2022-09-27T14:37:59;14.38;;;9.55;;
51252;SDS011;38936;47.808;19.936;2022-09-27T14:40:27;9.90;;;7.78;;
51252;SDS011;38936;47.808;19.936;2022-09-27T14:42:54;42.40;;;20.75;;
51252;SDS011;38936;47.808;19.936;2022-09-27T14:45:35;12.63;;;8.68;;
51252;SDS011;38936;47.808;19.936;2022-09-27T14:50:55;35.80;;;21.50;;
51252;SDS011;38936;47.808;19.936;2022-09-27T14:53:26;20.25;;;10.15;;
51252;SDS011;38936;47.808;19.936;2022-09-27T14:55:53;17.00;;;9.30;;
51252;SDS011;38936;47.808;19.936;2022-09-27T14:58:20;14.73;;;9.55;;
51252;SDS011;38936;47.808;19.936;2022-09-27T15:00:54;13.38;;;8.35;;
51252;SDS011;38936;47.808;19.936;2022-09-27T15:03:29;17.35;;;7.95;;
51252;SDS011;38936;47.808;19.936;2022-09-27T15:05:56;10.65;;;9.23;;
51252;SDS011;38936;47.808;19.936;2022-09-27T15:08:29;11.75;;;10.05;;
51252;SDS011;38936;47.808;19.936;2022-09-27T15:10:58;17.02;;;9.43;;
51252;SDS011;38936;47.808;19.936;2022-09-27T15:13:25;9.32;;;8.07;;
51252;SDS011;38936;47.808;19.936;2022-09-27T15:15:52;12.25;;;9.32;;
51252;SDS011;38936;47.808;19.936;2022-09-27T15:21:04;13.15;;;8.98;;
51252;SDS011;38936;47.808;19.936;2022-09-27T15:23:37;14.65;;;9.25;;
51252;SDS011;38936;47.808;19.936;2022-09-27T15:26:09;10.48;;;8.93;;
51252;SDS011;38936;47.808;19.936;2022-09-27T15:28:46;19.90;;;11.80;;
51252;SDS011;38936;47.808;19.936;2022-09-27T15:31:14;20.67;;;13.50;;
51252;SDS011;38936;47.808;19.936;2022-09-27T15:33:41;20.23;;;13.43;;
51252;SDS011;38936;47.808;19.936;2022-09-27T15:36:16;16.50;;;12.50;;
51252;SDS011;38936;47.808;19.936;2022-09-27T15:39:05;16.20;;;11.07;;
51252;SDS011;38936;47.808;19.936;2022-09-27T15:41:58;14.70;;;11.57;;
51252;SDS011;38936;47.808;19.936;2022-09-27T15:44:44;13.77;;;11.05;;
51252;SDS011;38936;47.808;19.936;2022-09-27T15:52:41;14.60;;;11.73;;
51252;SDS011;38936;47.808;19.936;2022-09-27T15:55:20;15.13;;;11.65;;
51252;SDS011;38936;47.808;19.936;2022-09-27T15:57:54;14.30;;;12.23;;
51252;SDS011;38936;47.808;19.936;2022-09-27T16:00:58;20.55;;;12.52;;
51252;SDS011;38936;47.808;19.936;2022-09-27T16:03:29;14.95;;;13.02;;
51252;SDS011;38936;47.808;19.936;2022-09-27T16:05:56;17.75;;;11.70;;
51252;SDS011;38936;47.808;19.936;2022-09-27T16:08:23;16.13;;;12.25;;
51252;SDS011;38936;47.808;19.936;2022-09-27T16:10:54;15.65;;;12.65;;
51252;SDS011;38936;47.808;19.936;2022-09-27T16:13:22;17.98;;;12.00;;
51252;SDS011;38936;47.808;19.936;2022-09-27T16:15:49;12.68;;;9.95;;
51252;SDS011;38936;47.808;19.936;2022-09-27T16:18:15;21.35;;;17.40;;
51252;SDS011;38936;47.808;19.936;2022-09-27T16:20:41;12.88;;;8.65;;
51252;SDS011;38936;47.808;19.936;2022-09-27T16:23:06;5.90;;;4.15;;
51252;SDS011;38936;47.808;19.936;2022-09-27T16:25:32;7.25;;;2.15;;
51252;SDS011;38936;47.808;19.936;2022-09-27T16:28:02;5.10;;;2.70;;
51252;SDS011;38936;47.808;19.936;2022-09-27T16:30:28;6.65;;;2.20;;
51252;SDS011;38936;47.808;19.936;2022-09-27T16:32:55;8.15;;;5.00;;
51252;SDS011;38936;47.808;19.936;2022-09-27T16:35:23;14.93;;;6.68;;
51252;SDS011;38936;47.808;19.936;2022-09-27T16:37:50;11.90;;;6.72;;
51252;SDS011;38936;47.808;19.936;2022-09-27T16:42:46;10.73;;;6.38;;
51252;SDS011;38936;47.808;19.936;2022-09-27T16:45:13;7.47;;;4.18;;
51252;SDS011;38936;47.808;19.936;2022-09-27T16:47:40;8.73;;;4.10;;
51252;SDS011;38936;47.808;19.936;2022-09-27T16:50:08;6.65;;;2.92;;
51252;SDS011;38936;47.808;19.936;2022-09-27T16:52:54;5.25;;;2.75;;
51252;SDS011;38936;47.808;19.936;2022-09-27T16:57:47;8.23;;;5.37;;
51252;SDS011;38936;47.808;19.936;2022-09-27T17:00:13;6.13;;;4.25;;
51252;SDS011;38936;47.808;19.936;2022-09-27T17:02:39;10.23;;;4.90;;
51252;SDS011;38936;47.808;19.936;2022-09-27T17:07:31;10.70;;;5.38;;
51252;SDS011;38936;47.808;19.936;2022-09-27T17:12:22;12.50;;;8.30;;
51252;SDS011;38936;47.808;19.936;2022-09-27T17:14:48;11.35;;;7.53;;
51252;SDS011;38936;47.808;19.936;2022-09-27T17:17:14;15.25;;;9.20;;
51252;SDS011;38936;47.808;19.936;2022-09-27T17:22:06;54.63;;;35.42;;
51252;SDS011;38936;47.808;19.936;2022-09-27T17:24:32;43.58;;;30.55;;
51252;SDS011;38936;47.808;19.936;2022-09-27T17:26:58;64.28;;;45.17;;
51252;SDS011;38936;47.808;19.936;2022-09-27T17:31:50;43.30;;;30.60;;
51252;SDS011;38936;47.808;19.936;2022-09-27T17:36:42;54.03;;;35.55;;
51252;SDS011;38936;47.808;19.936;2022-09-27T17:39:13;51.92;;;36.85;;
51252;SDS011;38936;47.808;19.936;2022-09-27T17:41:42;56.30;;;39.38;;
51252;SDS011;38936;47.808;19.936;2022-09-27T17:46:36;52.30;;;36.70;;
51252;SDS011;38936;47.808;19.936;2022-09-27T17:51:47;51.70;;;36.25;;
51252;SDS011;38936;47.808;19.936;2022-09-27T17:54:15;51.55;;;33.90;;
51252;SDS011;38936;47.808;19.936;2022-09-27T17:56:43;44.35;;;33.08;;
51252;SDS011;38936;47.808;19.936;2022-09-27T17:59:10;50.42;;;34.15;;
51252;SDS011;38936;47.808;19.936;2022-09-27T18:01:36;40.83;;;29.50;;
51252;SDS011;38936;47.808;19.936;2022-09-27T18:04:03;34.03;;;21.83;;
51252;SDS011;38936;47.808;19.936;2022-09-27T18:06:30;23.02;;;16.98;;
51252;SDS011;38936;47.808;19.936;2022-09-27T18:08:56;15.98;;;10.23;;
51252;SDS011;38936;47.808;19.936;2022-09-27T18:13:56;17.30;;;8.07;;
51252;SDS011;38936;47.808;19.936;2022-09-27T18:16:24;9.07;;;6.53;;
51252;SDS011;38936;47.808;19.936;2022-09-27T18:18:55;6.05;;;4.40;;
51252;SDS011;38936;47.808;19.936;2022-09-27T18:21:22;5.75;;;3.47;;
51252;SDS011;38936;47.808;19.936;2022-09-27T18:26:16;8.68;;;4.90;;
51252;SDS011;38936;47.808;19.936;2022-09-27T18:28:43;17.50;;;11.18;;
51252;SDS011;38936;47.808;19.936;2022-09-27T18:33:36;29.00;;;20.63;;
51252;SDS011;38936;47.808;19.936;2022-09-27T18:36:03;20.00;;;11.55;;
51252;SDS011;38936;47.808;19.936;2022-09-27T18:38:31;8.43;;;5.82;;
51252;SDS011;38936;47.808;19.936;2022-09-27T18:41:19;11.50;;;5.97;;
51252;SDS011;38936;47.808;19.936;2022-09-27T18:43:45;6.82;;;4.30;;
51252;SDS011;38936;47.808;19.936;2022-09-27T18:46:13;6.25;;;4.13;;
51252;SDS011;38936;47.808;19.936;2022-09-27T18:48:45;7.57;;;5.63;;
51252;SDS011;38936;47.808;19.936;2022-09-27T18:53:41;8.57;;;4.90;;
51252;SDS011;38936;47.808;19.936;2022-09-27T18:56:08;9.07;;;5.07;;
51252;SDS011;38936;47.808;19.936;2022-09-27T18:58:39;10.40;;;3.88;;
51252;SDS011;38936;47.808;19.936;2022-09-27T19:01:09;7.40;;;3.58;;
51252;SDS011;38936;47.808;19.936;2022-09-27T19:03:36;6.50;;;3.33;;
51252;SDS011;38936;47.808;19.936;2022-09-27T19:08:29;7.57;;;3.60;;
51252;SDS011;38936;47.808;19.936;2022-09-27T19:13:27;6.45;;;3.60;;
51252;SDS011;38936;47.808;19.936;2022-09-27T19:18:23;10.23;;;3.00;;
51252;SDS011;38936;47.808;19.936;2022-09-27T19:20:49;9.15;;;3.80;;
51252;SDS011;38936;47.808;19.936;2022-09-27T19:23:16;4.05;;;2.97;;
51252;SDS011;38936;47.808;19.936;2022-09-27T19:25:42;3.55;;;2.13;;
51252;SDS011;38936;47.808;19.936;2022-09-27T19:33:08;9.65;;;4.10;;
51252;SDS011;38936;47.808;19.936;2022-09-27T19:37:59;6.72;;;5.32;;
51252;SDS011;38936;47.808;19.936;2022-09-27T19:42:51;13.20;;;7.53;;
51252;SDS011;38936;47.808;19.936;2022-09-27T19:45:17;11.75;;;6.43;;
51252;SDS011;38936;47.808;19.936;2022-09-27T19:50:08;10.65;;;5.70;;
51252;SDS011;38936;47.808;19.936;2022-09-27T19:55:00;11.57;;;7.22;;
51252;SDS011;38936;47.808;19.936;2022-09-27T19:59:51;8.90;;;4.07;;
51252;SDS011;38936;47.808;19.936;2022-09-27T20:04:42;8.00;;;3.22;;
51252;SDS011;38936;47.808;19.936;2022-09-27T20:09:33;1.40;;;0.75;;
51252;SDS011;38936;47.808;19.936;2022-09-27T20:12:01;1.65;;;0.52;;
51252;SDS011;38936;47.808;19.936;2022-09-27T20:14:27;1.10;;;0.40;;
51252;SDS011;38936;47.808;19.936;2022-09-27T20:19:18;3.85;;;0.40;;
51252;SDS011;38936;47.808;19.936;2022-09-27T20:24:10;0.88;;;0.30;;
51252;SDS011;38936;47.808;19.936;2022-09-27T20:26:36;0.80;;;0.45;;
51252;SDS011;38936;47.808;19.936;2022-09-27T20:31:30;2.95;;;1.60;;
51252;SDS011;38936;47.808;19.936;2022-09-27T20:33:57;4.25;;;2.47;;
51252;SDS011;38936;47.808;19.936;2022-09-27T20:36:27;2.58;;;1.55;;
51252;SDS011;38936;47.808;19.936;2022-09-27T20:38:59;3.00;;;0.82;;
51252;SDS011;38936;47.808;19.936;2022-09-27T20:41:26;1.92;;;1.10;;
51252;SDS011;38936;47.808;19.936;2022-09-27T20:43:54;3.65;;;1.33;;
51252;SDS011;38936;47.808;19.936;2022-09-27T20:46:21;3.15;;;1.40;;
51252;SDS011;38936;47.808;19.936;2022-09-27T20:48:51;2.92;;;1.23;;
51252;SDS011;38936;47.808;19.936;2022-09-27T20:51:20;3.35;;;1.20;;
51252;SDS011;38936;47.808;19.936;2022-09-27T20:53:46;1.42;;;0.80;;
51252;SDS011;38936;47.808;19.936;2022-09-27T20:56:22;1.50;;;0.73;;
51252;SDS011;38936;47.808;19.936;2022-09-27T20:58:54;4.05;;;1.02;;
51252;SDS011;38936;47.808;19.936;2022-09-27T21:01:21;1.20;;;0.60;;
51252;SDS011;38936;47.808;19.936;2022-09-27T21:03:51;3.15;;;0.77;;
51252;SDS011;38936;47.808;19.936;2022-09-27T21:06:21;3.17;;;0.73;;
51252;SDS011;38936;47.808;19.936;2022-09-27T21:11:13;1.00;;;0.40;;
51252;SDS011;38936;47.808;19.936;2022-09-27T21:13:40;1.90;;;0.70;;
51252;SDS011;38936;47.808;19.936;2022-09-27T21:16:08;1.20;;;0.60;;
51252;SDS011;38936;47.808;19.936;2022-09-27T21:18:35;2.22;;;1.02;;
51252;SDS011;38936;47.808;19.936;2022-09-27T21:21:02;6.45;;;0.85;;
51252;SDS011;38936;47.808;19.936;2022-09-27T21:23:33;4.45;;;1.42;;
51252;SDS011;38936;47.808;19.936;2022-09-27T21:26:07;10.75;;;2.22;;
51252;SDS011;38936;47.808;19.936;2022-09-27T21:28:35;6.57;;;2.00;;
51252;SDS011;38936;47.808;19.936;2022-09-27T21:31:09;5.78;;;1.85;;
51252;SDS011;38936;47.808;19.936;2022-09-27T21:33:36;6.03;;;1.77;;
51252;SDS011;38936;47.808;19.936;2022-09-27T21:38:29;6.43;;;0.93;;
51252;SDS011;38936;47.808;19.936;2022-09-27T21:40:56;2.38;;;0.90;;
51252;SDS011;38936;47.808;19.936;2022-09-27T21:43:32;2.72;;;1.13;;
51252;SDS011;38936;47.808;19.936;2022-09-27T21:46:03;4.32;;;1.17;;
51252;SDS011;38936;47.808;19.936;2022-09-27T21:48:29;2.65;;;1.00;;
51252;SDS011;38936;47.808;19.936;2022-09-27T21:51:05;2.72;;;0.88;;
51252;SDS011;38936;47.808;19.936;2022-09-27T21:53:38;3.35;;;0.80;;
51252;SDS011;38936;47.808;19.936;2022-09-27T21:56:05;2.45;;;1.10;;
51252;SDS011;38936;47.808;19.936;2022-09-27T21:58:33;2.83;;;1.02;;
51252;SDS011;38936;47.808;19.936;2022-09-27T22:01:10;2.13;;;1.20;;
51252;SDS011;38936;47.808;19.936;2022-09-27T22:03:43;2.25;;;1.23;;
51252;SDS011;38936;47.808;19.936;2022-09-27T22:06:14;3.28;;;1.30;;
51252;SDS011;38936;47.808;19.936;2022-09-27T22:08:42;2.65;;;1.40;;
51252;SDS011;38936;47.808;19.936;2022-09-27T22:11:08;4.38;;;1.98;;
51252;SDS011;38936;47.808;19.936;2022-09-27T22:13:37;3.50;;;2.38;;
51252;SDS011;38936;47.808;19.936;2022-09-27T22:18:33;2.85;;;1.70;;
51252;SDS011;38936;47.808;19.936;2022-09-27T22:21:05;7.20;;;2.45;;
51252;SDS011;38936;47.808;19.936;2022-09-27T22:23:32;4.20;;;2.20;;
51252;SDS011;38936;47.808;19.936;2022-09-27T22:25:58;3.13;;;1.95;;
51252;SDS011;38936;47.808;19.936;2022-09-27T22:28:25;4.20;;;1.80;;
51252;SDS011;38936;47.808;19.936;2022-09-27T22:30:51;2.17;;;1.23;;
51252;SDS011;38936;47.808;19.936;2022-09-27T22:33:17;2.80;;;1.63;;
51252;SDS011;38936;47.808;19.936;2022-09-27T22:38:12;3.45;;;1.77;;
51252;SDS011;38936;47.808;19.936;2022-09-27T22:43:03;4.97;;;1.67;;
51252;SDS011;38936;47.808;19.936;2022-09-27T22:47:54;3.58;;;1.80;;
51252;SDS011;38936;47.808;19.936;2022-09-27T22:52:45;2.90;;;1.65;;
51252;SDS011;38936;47.808;19.936;2022-09-27T22:57:36;4.13;;;2.15;;
51252;SDS011;38936;47.808;19.936;2022-09-27T23:02:28;2.97;;;1.40;;
51252;SDS011;38936;47.808;19.936;2022-09-27T23:07:19;4.15;;;2.22;;
51252;SDS011;38936;47.808;19.936;2022-09-27T23:12:11;3.58;;;1.85;;
51252;SDS011;38936;47.808;19.936;2022-09-27T23:17:03;5.05;;;2.22;;
51252;SDS011;38936;47.808;19.936;2022-09-27T23:21:58;4.63;;;2.75;;
51252;SDS011;38936;47.808;19.936;2022-09-27T23:24:24;4.82;;;2.67;;
51252;SDS011;38936;47.808;19.936;2022-09-27T23:29:35;3.90;;;2.55;;
51252;SDS011;38936;47.808;19.936;2022-09-27T23:34:28;5.00;;;3.83;;
51252;SDS011;38936;47.808;19.936;2022-09-27T23:36:55;13.02;;;4.03;;
51252;SDS011;38936;47.808;19.936;2022-09-27T23:41:46;4.78;;;3.55;;
51252;SDS011;38936;47.808;19.936;2022-09-27T23:49:05;6.07;;;4.22;;
51252;SDS011;38936;47.808;19.936;2022-09-27T23:53:57;5.78;;;4.47;;
51252;SDS011;38936;47.808;19.936;2022-09-27T23:58:48;8.88;;;4.10;;
